createdAt,value
2022-08-12T00:00:11.258Z,0.63
2022-08-12T00:03:33.192Z,0.55
2022-08-12T00:06:56.213Z,0.73
2022-08-12T00:10:18.046Z,0.40
2022-08-12T00:13:39.486Z,0.80
2022-08-12T00:17:02.002Z,0.60
2022-08-12T00:20:25.282Z,0.50
2022-08-12T00:23:51.264Z,0.70
2022-08-12T00:27:14.955Z,0.82
2022-08-12T00:30:37.625Z,0.50
2022-08-12T00:34:00.560Z,0.50
2022-08-12T00:37:24.569Z,0.60
2022-08-12T00:40:47.557Z,0.80
2022-08-12T00:43:56.285Z,0.85
2022-08-12T00:47:03.027Z,0.60
2022-08-12T00:50:07.199Z,0.60
2022-08-12T00:53:10.146Z,0.50
2022-08-12T00:56:17.534Z,0.80
2022-08-12T00:59:20.943Z,0.88
2022-08-12T01:02:42.369Z,0.70
2022-08-12T01:06:05.409Z,0.60
2022-08-12T01:09:28.176Z,0.60
2022-08-12T01:12:32.711Z,0.77
2022-08-12T01:15:38.410Z,0.75
2022-08-12T01:18:43.154Z,0.62
2022-08-12T01:21:47.003Z,0.77
2022-08-12T01:25:02.073Z,1.15
2022-08-12T01:28:06.919Z,0.70
2022-08-12T01:31:14.522Z,0.70
2022-08-12T01:34:35.959Z,0.93
2022-08-12T01:37:58.373Z,0.60
2022-08-12T01:41:05.281Z,0.93
2022-08-12T01:44:09.440Z,0.80
2022-08-12T01:47:43.000Z,0.77
2022-08-12T01:52:14.782Z,0.70
2022-08-12T01:54:45.136Z,0.90
2022-08-12T01:57:58.988Z,0.70
2022-08-12T02:01:09.396Z,0.77
2022-08-12T02:04:43.148Z,0.82
2022-08-12T02:08:39.568Z,0.80
2022-08-12T02:12:15.319Z,0.90
2022-08-12T02:15:30.600Z,0.90
2022-08-12T02:18:46.805Z,0.80
2022-08-12T02:22:24.636Z,0.70
2022-08-12T02:25:38.696Z,0.80
2022-08-12T02:28:41.895Z,1.30
2022-08-12T02:31:46.003Z,1.60
2022-08-12T02:34:48.978Z,1.00
2022-08-12T02:37:54.291Z,0.88
2022-08-12T02:40:59.453Z,0.90
2022-08-12T02:44:10.836Z,0.80
2022-08-12T02:47:59.055Z,0.98
2022-08-12T02:50:42.758Z,0.73
2022-08-12T02:53:46.290Z,0.68
2022-08-12T02:57:10.346Z,0.80
2022-08-12T03:00:16.355Z,1.10
2022-08-12T03:03:19.573Z,0.88
2022-08-12T03:06:24.185Z,1.00
2022-08-12T03:09:31.970Z,0.75
2022-08-12T03:12:49.292Z,0.90
2022-08-12T03:15:55.601Z,0.90
2022-08-12T03:18:58.853Z,0.90
2022-08-12T03:22:13.320Z,0.93
2022-08-12T03:25:27.560Z,0.93
2022-08-12T03:28:54.126Z,0.80
2022-08-12T03:32:00.789Z,0.97
2022-08-12T03:35:07.867Z,1.10
2022-08-12T03:38:12.530Z,1.20
2022-08-12T03:41:35.659Z,0.80
2022-08-12T03:45:09.344Z,1.00
2022-08-12T03:48:33.889Z,0.90
2022-08-12T03:51:55.988Z,0.98
2022-08-12T03:55:17.814Z,0.90
2022-08-12T03:58:39.971Z,1.02
2022-08-12T04:01:43.351Z,1.00
2022-08-12T04:04:49.410Z,1.10
2022-08-12T04:07:58.253Z,1.70
2022-08-12T04:11:23.214Z,1.00
2022-08-12T04:14:28.015Z,0.90
2022-08-12T04:17:32.546Z,1.00
2022-08-12T04:20:36.050Z,1.10
2022-08-12T04:23:46.342Z,0.95
2022-08-12T04:26:52.012Z,1.10
2022-08-12T04:30:31.434Z,1.20
2022-08-12T04:33:19.349Z,0.90
2022-08-12T04:36:22.823Z,1.00
2022-08-12T04:39:26.614Z,0.90
2022-08-12T04:42:29.645Z,0.95
2022-08-12T04:45:34.989Z,0.82
2022-08-12T04:48:38.354Z,1.27
2022-08-12T04:51:42.399Z,1.03
2022-08-12T04:55:03.170Z,1.02
2022-08-12T04:58:07.341Z,1.08
2022-08-12T05:01:11.282Z,1.10
2022-08-12T05:04:16.465Z,1.00
2022-08-12T05:07:20.829Z,0.93
2022-08-12T05:10:33.471Z,0.90
2022-08-12T05:13:40.745Z,1.00
2022-08-12T05:16:43.674Z,0.98
2022-08-12T05:19:49.167Z,0.85
2022-08-12T05:22:53.119Z,1.17
2022-08-12T05:26:03.855Z,0.95
2022-08-12T05:30:07.677Z,1.35
2022-08-12T05:32:36.755Z,1.05
2022-08-12T05:35:44.272Z,1.00
2022-08-12T05:38:58.370Z,1.00
2022-08-12T05:42:02.193Z,0.90
2022-08-12T05:45:06.971Z,0.98
2022-08-12T05:48:10.626Z,1.12
2022-08-12T05:51:13.986Z,1.12
2022-08-12T05:54:21.945Z,0.90
2022-08-12T05:57:31.369Z,1.27
2022-08-12T06:00:36.044Z,1.12
2022-08-12T06:03:40.411Z,1.00
2022-08-12T06:06:44.243Z,0.93
2022-08-12T06:09:47.740Z,1.00
2022-08-12T06:12:51.573Z,1.12
2022-08-12T06:15:55.852Z,1.08
2022-08-12T06:18:59.254Z,0.90
2022-08-12T06:22:02.735Z,1.12
2022-08-12T06:25:06.938Z,1.23
2022-08-12T06:28:19.581Z,1.30
2022-08-12T06:31:26.680Z,1.20
2022-08-12T06:35:24.340Z,1.10
2022-08-12T06:38:00.610Z,1.23
2022-08-12T06:41:22.896Z,1.03
2022-08-12T06:44:26.068Z,1.20
2022-08-12T06:47:32.665Z,1.50
2022-08-12T06:50:39.910Z,1.27
2022-08-12T06:53:44.203Z,1.30
2022-08-12T06:57:03.467Z,1.07
2022-08-12T07:00:12.131Z,1.10
2022-08-12T07:03:23.262Z,1.45
2022-08-12T07:06:27.177Z,1.20
2022-08-12T07:10:05.469Z,1.35
2022-08-12T07:12:55.440Z,1.23
2022-08-12T07:15:58.998Z,1.60
2022-08-12T07:19:04.791Z,1.50
2022-08-12T07:22:14.218Z,1.30
2022-08-12T07:25:40.609Z,1.60
2022-08-12T07:28:48.135Z,1.53
2022-08-12T07:31:53.445Z,1.50
2022-08-12T07:34:56.558Z,1.25
2022-08-12T07:38:01.046Z,1.42
2022-08-12T07:41:14.532Z,1.58
2022-08-12T07:44:20.300Z,1.50
2022-08-12T07:47:24.351Z,1.33
2022-08-12T07:50:28.519Z,1.48
2022-08-12T07:53:32.755Z,1.50
2022-08-12T07:56:42.430Z,1.40
2022-08-12T07:59:46.164Z,1.57
2022-08-12T08:02:54.358Z,1.55
2022-08-12T08:05:58.806Z,1.40
2022-08-12T08:09:04.112Z,1.30
2022-08-12T08:12:26.981Z,1.15
2022-08-12T08:16:03.140Z,1.10
2022-08-12T08:19:01.460Z,1.48
2022-08-12T08:22:05.673Z,1.58
2022-08-12T08:25:20.461Z,1.40
2022-08-12T08:28:36.631Z,1.50
2022-08-12T08:31:45.446Z,1.60
2022-08-12T08:34:53.960Z,1.70
2022-08-12T08:38:09.214Z,1.23
2022-08-12T08:42:17.736Z,1.60
2022-08-12T08:44:59.260Z,1.40
2022-08-12T08:48:02.748Z,1.30
2022-08-12T08:51:07.693Z,1.52
2022-08-12T08:54:15.188Z,1.27
2022-08-12T08:57:20.400Z,1.67
2022-08-12T09:00:26.631Z,1.48
2022-08-12T09:04:21.357Z,1.30
2022-08-12T09:10:32.768Z,1.50
2022-08-12T09:14:12.424Z,1.50
2022-08-12T09:17:02.962Z,1.45
2022-08-12T09:20:07.487Z,1.20
2022-08-12T09:26:46.092Z,1.58
2022-08-12T09:30:11.581Z,1.65
2022-08-12T09:33:19.281Z,1.50
2022-08-12T09:36:57.944Z,1.33
2022-08-12T09:40:57.402Z,1.85
2022-08-12T09:43:53.357Z,1.73
2022-08-12T09:47:00.369Z,1.52
2022-08-12T09:50:05.425Z,1.70
2022-08-12T09:53:36.577Z,1.70
2022-08-12T09:56:58.400Z,1.37
2022-08-12T10:00:16.222Z,1.50
2022-08-12T10:03:32.632Z,1.60
2022-08-12T10:06:55.496Z,1.48
2022-08-12T10:10:01.324Z,1.30
2022-08-12T10:13:38.818Z,1.55
2022-08-12T10:16:45.710Z,1.40
2022-08-12T10:19:52.403Z,1.80
2022-08-12T10:23:03.925Z,1.50
2022-08-12T10:26:37.360Z,1.27
2022-08-12T10:30:38.783Z,1.33
2022-08-12T10:33:19.302Z,1.67
2022-08-12T10:36:40.831Z,1.12
2022-08-12T10:40:03.137Z,1.50
2022-08-12T10:43:29.320Z,1.33
2022-08-12T10:46:53.898Z,1.50
2022-08-12T10:50:32.617Z,1.42
2022-08-12T10:53:45.964Z,1.62
2022-08-12T10:56:50.690Z,1.55
2022-08-12T11:00:31.745Z,1.43
2022-08-12T11:04:23.367Z,1.30
2022-08-12T11:07:10.117Z,1.65
2022-08-12T11:10:19.891Z,1.60
2022-08-12T11:13:46.191Z,1.58
2022-08-12T11:17:34.949Z,1.60
2022-08-12T11:20:23.921Z,1.60
2022-08-12T11:23:36.838Z,1.62
2022-08-12T11:26:40.205Z,1.50
2022-08-12T11:30:05.842Z,1.50
2022-08-12T11:33:12.261Z,1.40
2022-08-12T11:36:17.156Z,1.40
2022-08-12T11:39:29.402Z,1.40
2022-08-12T11:42:47.545Z,1.48
2022-08-12T11:45:56.580Z,1.58
2022-08-12T11:49:00.736Z,1.30
2022-08-12T11:52:35.887Z,1.60
2022-08-12T11:55:29.813Z,1.30
2022-08-12T12:00:11.710Z,1.50
2022-08-12T12:02:05.587Z,1.70
2022-08-12T12:05:10.535Z,1.53
2022-08-12T12:08:38.416Z,1.70
2022-08-12T12:11:49.690Z,1.80
2022-08-12T12:14:55.873Z,1.60
2022-08-12T12:18:01.574Z,1.42
2022-08-12T12:21:08.350Z,1.30
2022-08-12T12:24:13.176Z,1.45
2022-08-12T12:27:19.700Z,1.25
2022-08-12T12:30:29.830Z,1.20
2022-08-12T12:33:57.491Z,1.40
2022-08-12T12:37:01.094Z,1.50
2022-08-12T12:40:06.007Z,1.40
2022-08-12T12:43:10.267Z,1.50
2022-08-12T12:46:14.833Z,1.40
2022-08-12T12:49:18.304Z,1.55
2022-08-12T12:52:29.432Z,1.57
2022-08-12T12:55:38.860Z,1.45
2022-08-12T12:58:44.327Z,1.30
2022-08-12T13:01:50.182Z,1.60
2022-08-12T13:04:54.157Z,1.60
2022-08-12T13:08:04.236Z,1.40
2022-08-12T13:11:08.405Z,1.30
2022-08-12T13:14:28.891Z,1.80
2022-08-12T13:18:02.964Z,1.37
2022-08-12T13:20:59.880Z,1.50
2022-08-12T13:24:09.717Z,1.50
2022-08-12T13:27:19.111Z,1.60
2022-08-12T13:30:24.809Z,1.42
2022-08-12T13:33:29.299Z,1.80
2022-08-12T13:36:52.112Z,1.40
2022-08-12T13:39:55.822Z,1.27
2022-08-12T13:42:59.769Z,1.65
2022-08-12T13:46:11.819Z,1.50
2022-08-12T13:49:17.650Z,1.37
2022-08-12T13:52:39.835Z,1.80
2022-08-12T13:55:50.215Z,2.00
2022-08-12T13:59:08.759Z,1.55
2022-08-12T14:02:13.452Z,1.20
2022-08-12T14:05:37.523Z,1.50
2022-08-12T14:08:41.171Z,1.70
2022-08-12T14:11:58.930Z,1.30
2022-08-12T14:15:02.711Z,1.25
2022-08-12T14:18:25.500Z,1.37
2022-08-12T14:21:30.343Z,1.20
2022-08-12T14:24:54.110Z,1.40
2022-08-12T14:28:16.380Z,1.07
2022-08-12T14:31:22.138Z,1.12
2022-08-12T14:34:28.365Z,1.30
2022-08-12T14:37:58.150Z,1.17
2022-08-12T14:40:59.926Z,1.37
2022-08-12T14:44:56.878Z,1.07
2022-08-12T14:47:35.478Z,1.30
2022-08-12T14:51:09.505Z,1.48
2022-08-12T14:56:58.772Z,1.60
2022-08-12T14:57:57.188Z,0.85
2022-08-12T15:01:32.745Z,1.10
2022-08-12T15:04:39.789Z,1.20
2022-08-12T15:07:53.434Z,1.10
2022-08-12T15:11:14.633Z,1.40
2022-08-12T15:14:18.973Z,1.20
2022-08-12T15:17:37.567Z,1.43
2022-08-12T15:20:44.790Z,1.42
2022-08-12T15:23:55.554Z,1.10
2022-08-12T15:27:00.551Z,1.40
2022-08-12T15:30:04.973Z,1.25
2022-08-12T15:33:12.778Z,1.30
2022-08-12T15:36:40.731Z,1.30
2022-08-12T15:39:55.250Z,1.27
2022-08-12T15:43:08.226Z,1.25
2022-08-12T15:46:15.793Z,1.30
2022-08-12T15:49:20.178Z,1.40
2022-08-12T15:52:28.561Z,1.10
2022-08-12T15:55:33.611Z,1.20
2022-08-12T15:58:41.437Z,1.10
2022-08-12T16:01:45.393Z,1.30
2022-08-12T16:04:50.590Z,1.20
2022-08-12T16:07:56.304Z,1.12
2022-08-12T16:11:00.121Z,1.10
2022-08-12T16:14:13.141Z,1.15
2022-08-12T16:17:19.853Z,1.00
2022-08-12T16:20:33.627Z,1.30
2022-08-12T16:23:55.489Z,1.27
2022-08-12T16:27:01.213Z,1.30
2022-08-12T16:30:10.271Z,1.10
2022-08-12T16:33:17.903Z,1.10
2022-08-12T16:36:25.907Z,1.03
2022-08-12T16:39:29.055Z,1.08
2022-08-12T16:42:39.456Z,0.95
2022-08-12T16:46:05.481Z,1.27
2022-08-12T16:49:13.655Z,1.48
2022-08-12T16:52:18.626Z,1.50
2022-08-12T16:55:23.271Z,1.60
2022-08-12T16:58:31.104Z,1.05
2022-08-12T17:01:37.906Z,1.40
2022-08-12T17:04:52.800Z,1.40
2022-08-12T17:07:58.549Z,1.57
2022-08-12T17:11:03.218Z,1.62
2022-08-12T17:14:11.974Z,1.40
2022-08-12T17:17:19.923Z,1.20
2022-08-12T17:20:36.464Z,1.17
2022-08-12T17:23:53.509Z,1.20
2022-08-12T17:26:59.085Z,1.25
2022-08-12T17:30:05.124Z,1.10
2022-08-12T17:33:23.736Z,1.10
2022-08-12T17:36:31.542Z,1.20
2022-08-12T17:40:15.483Z,1.43
2022-08-12T17:43:56.008Z,1.10
2022-08-12T17:46:34.529Z,1.35
2022-08-12T17:50:02.154Z,1.33
2022-08-12T17:53:05.701Z,1.40
2022-08-12T17:56:11.520Z,1.30
2022-08-12T17:59:27.416Z,1.40
2022-08-12T18:02:46.617Z,1.30
2022-08-12T18:05:59.702Z,1.27
2022-08-12T18:09:09.663Z,1.20
2022-08-12T18:12:35.513Z,1.23
2022-08-12T18:16:06.084Z,1.20
2022-08-12T18:19:07.347Z,1.30
2022-08-12T18:22:12.407Z,1.12
2022-08-12T18:26:13.309Z,1.15
2022-08-12T18:29:03.088Z,1.20
2022-08-12T18:32:34.660Z,1.50
2022-08-12T18:35:46.332Z,1.00
2022-08-12T18:38:56.195Z,1.23
2022-08-12T18:42:04.559Z,1.10
2022-08-12T18:45:11.762Z,0.97
2022-08-12T18:48:16.684Z,1.10
2022-08-12T18:51:45.901Z,1.10
2022-08-12T18:54:52.315Z,1.17
2022-08-12T18:58:08.419Z,1.05
2022-08-12T19:02:20.926Z,1.30
2022-08-12T19:04:39.142Z,1.12
2022-08-12T19:08:01.727Z,1.23
2022-08-12T19:11:26.862Z,1.00
2022-08-12T19:14:32.801Z,1.33
2022-08-12T19:17:56.885Z,0.90
2022-08-12T19:21:06.638Z,1.08
2022-08-12T19:24:34.667Z,1.23
2022-08-12T19:27:50.644Z,1.10
2022-08-12T19:31:14.184Z,1.02
2022-08-12T19:34:42.061Z,1.07
2022-08-12T19:38:03.761Z,1.12
2022-08-12T19:41:09.954Z,1.40
2022-08-12T19:44:22.298Z,1.23
2022-08-12T19:47:38.980Z,1.00
2022-08-12T19:50:50.447Z,1.30
2022-08-12T19:53:58.646Z,1.05
2022-08-12T19:57:02.801Z,1.30
2022-08-12T20:00:08.252Z,1.00
2022-08-12T20:03:39.562Z,1.15
2022-08-12T20:06:51.353Z,1.30
2022-08-12T20:09:57.727Z,1.10
2022-08-12T20:13:18.392Z,1.17
2022-08-12T20:16:52.580Z,1.10
2022-08-12T20:20:17.802Z,1.25
2022-08-12T20:23:50.358Z,1.33
2022-08-12T20:26:55.381Z,1.10
2022-08-12T20:30:01.001Z,1.27
2022-08-12T20:33:05.486Z,1.00
2022-08-12T20:36:40.244Z,1.23
2022-08-12T20:39:52.945Z,1.30
2022-08-12T20:42:57.988Z,1.20
2022-08-12T20:46:00.724Z,1.20
2022-08-12T20:49:17.245Z,1.17
2022-08-12T20:52:22.943Z,1.10
2022-08-12T20:55:42.430Z,1.30
2022-08-12T20:58:46.808Z,1.30
2022-08-12T21:01:53.829Z,1.45
2022-08-12T21:05:20.149Z,1.12
2022-08-12T21:08:26.587Z,1.10
2022-08-12T21:11:30.427Z,1.13
2022-08-12T21:14:39.970Z,1.00
2022-08-12T21:18:11.237Z,1.20
2022-08-12T21:21:49.795Z,1.12
2022-08-12T21:24:54.292Z,1.30
2022-08-12T21:28:01.237Z,1.17
2022-08-12T21:32:34.351Z,1.10
2022-08-12T21:34:33.063Z,1.20
2022-08-12T21:37:41.712Z,1.17
2022-08-12T21:40:52.682Z,1.40
2022-08-12T21:44:01.624Z,1.50
2022-08-12T21:47:19.796Z,1.92
2022-08-12T21:50:26.000Z,1.50
2022-08-12T21:54:07.994Z,1.73
2022-08-12T21:56:56.859Z,1.60
2022-08-12T22:00:00.958Z,1.57
2022-08-12T22:04:04.040Z,1.80
2022-08-12T22:06:53.900Z,1.30
2022-08-12T22:09:57.445Z,1.35
2022-08-12T22:13:03.506Z,1.50
2022-08-12T22:16:10.626Z,1.40
2022-08-12T22:19:19.801Z,1.45
2022-08-12T22:22:25.366Z,1.23
2022-08-12T22:25:40.032Z,1.35
2022-08-12T22:29:04.569Z,1.30
2022-08-12T22:32:11.548Z,1.17
2022-08-12T22:35:55.318Z,1.30
2022-08-12T22:38:59.066Z,1.27
2022-08-12T22:42:21.626Z,1.48
2022-08-12T22:45:48.322Z,1.50
2022-08-12T22:48:53.620Z,1.47
2022-08-12T22:52:00.700Z,1.23
2022-08-12T22:55:06.277Z,1.30
2022-08-12T22:58:12.466Z,1.42
2022-08-12T23:01:51.849Z,1.27
2022-08-12T23:04:40.443Z,1.30
2022-08-12T23:07:58.701Z,1.45
2022-08-12T23:11:05.787Z,1.40
2022-08-12T23:14:10.892Z,1.70
2022-08-12T23:17:21.469Z,1.60
2022-08-12T23:20:43.415Z,1.70
2022-08-12T23:24:09.313Z,2.00
2022-08-12T23:27:50.415Z,1.77
2022-08-12T23:31:04.168Z,2.00
2022-08-12T23:34:08.175Z,1.98
2022-08-12T23:37:13.085Z,2.23
2022-08-12T23:40:21.055Z,2.50
2022-08-12T23:43:25.763Z,2.70
2022-08-12T23:46:29.207Z,2.72
2022-08-12T23:49:58.079Z,2.90
2022-08-12T23:52:56.247Z,2.47
2022-08-12T23:56:00.287Z,3.30
2022-08-12T23:59:05.729Z,2.85
